Grand Marais, Minnesota
Current Conditions -  °F | °C
As of 2:54 PM on Friday 19 Dec 2014 (Local Time) from KCKC Reporting Station
Overcast Overcast  
Wind Chill: -11°   Ceiling: 800
Heat Index: -6°   Visibility: 10mi
Dew Point: -8°   Wind: 7mph
Humidity: 86%   Direction: 140°SE
Pressure: 30.16"   Gusts: NA
Location:  47.75°N, 90.33°W
Report Text: KCKC 192054Z AUTO 14006KT 10SM OVC008 M06/M08 A3016 RMK AO2
Loading
Personal Weather Stations






























Interactive Weather Map New forecast layout! Learn more

10-Day Weather Forecast

Advertisements
Track Severe Weather on mobile